createdAt,value
2019-01-11T00:00:10.195Z,2.58
2019-01-11T00:01:10.212Z,2.52
2019-01-11T00:02:10.236Z,2.60
2019-01-11T00:03:10.257Z,2.60
2019-01-11T00:04:10.277Z,2.63
2019-01-11T00:05:10.299Z,2.63
2019-01-11T00:06:10.320Z,2.65
2019-01-11T00:07:10.340Z,2.60
2019-01-11T00:08:10.362Z,2.49
2019-01-11T00:09:10.381Z,2.58
2019-01-11T00:10:10.405Z,2.60
2019-01-11T00:11:10.423Z,2.65
2019-01-11T00:12:10.444Z,2.65
2019-01-11T00:13:10.468Z,2.62
2019-01-11T00:14:10.486Z,2.65
2019-01-11T00:15:10.509Z,2.59
2019-01-11T00:16:10.528Z,2.62
2019-01-11T00:17:10.552Z,2.58
2019-01-11T00:18:10.572Z,2.62
2019-01-11T00:19:10.592Z,2.52
2019-01-11T00:20:10.612Z,2.58
2019-01-11T00:21:10.634Z,2.59
2019-01-11T00:22:10.658Z,2.62
2019-01-11T00:23:11.021Z,2.58
2019-01-11T00:24:10.699Z,2.55
2019-01-11T00:25:10.721Z,2.55
2019-01-11T00:26:10.743Z,2.59
2019-01-11T00:27:10.761Z,2.59
2019-01-11T00:28:10.785Z,2.54
2019-01-11T00:29:10.825Z,2.58
2019-01-11T00:30:10.827Z,2.62
2019-01-11T00:31:10.845Z,2.60
2019-01-11T00:32:10.869Z,2.55
2019-01-11T00:33:10.891Z,2.62
2019-01-11T00:34:10.910Z,2.60
2019-01-11T00:35:10.940Z,2.62
2019-01-11T00:36:10.953Z,2.59
2019-01-11T00:37:10.977Z,2.60
2019-01-11T00:38:10.997Z,2.58
2019-01-11T00:39:11.017Z,2.65
2019-01-11T00:40:11.038Z,2.67
2019-01-11T00:41:11.057Z,2.55
2019-01-11T00:42:11.079Z,2.60
2019-01-11T00:43:15.015Z,2.54
2019-01-11T00:44:11.120Z,2.59
2019-01-11T00:45:11.146Z,2.59
2019-01-11T00:46:11.165Z,2.58
2019-01-11T00:47:11.185Z,2.59
2019-01-11T00:48:11.207Z,2.60
2019-01-11T00:49:13.617Z,2.60
2019-01-11T00:50:11.248Z,2.55
2019-01-11T00:51:11.270Z,2.54
2019-01-11T00:52:11.290Z,2.58
2019-01-11T00:53:11.310Z,2.58
2019-01-11T00:54:11.584Z,2.58
2019-01-11T00:55:11.352Z,2.58
2019-01-11T00:56:11.375Z,2.62
2019-01-11T00:57:11.394Z,2.51
2019-01-11T00:58:11.416Z,2.60
2019-01-11T00:59:11.437Z,2.55
2019-01-11T01:00:11.470Z,2.49
2019-01-11T01:01:11.479Z,2.67
2019-01-11T01:02:11.503Z,2.55
2019-01-11T01:03:11.523Z,2.51
2019-01-11T01:04:11.542Z,2.52
2019-01-11T01:05:11.563Z,2.65
2019-01-11T01:06:11.587Z,2.59
2019-01-11T01:07:11.604Z,2.59
2019-01-11T01:08:11.626Z,2.58
2019-01-11T01:09:11.649Z,2.58
2019-01-11T01:10:11.669Z,2.60
2019-01-11T01:11:11.690Z,2.59
2019-01-11T01:12:11.713Z,2.58
2019-01-11T01:13:11.746Z,2.63
2019-01-11T01:14:11.754Z,2.59
2019-01-11T01:15:11.776Z,2.60
2019-01-11T01:16:11.799Z,2.58
2019-01-11T01:17:11.815Z,2.65
2019-01-11T01:18:11.838Z,2.65
2019-01-11T01:19:11.859Z,2.65
2019-01-11T01:20:11.879Z,2.59
2019-01-11T01:21:11.904Z,2.60
2019-01-11T01:22:11.932Z,2.69
2019-01-11T01:23:11.943Z,2.59
2019-01-11T01:24:11.964Z,2.63
2019-01-11T01:25:12.025Z,2.62
2019-01-11T01:26:12.006Z,2.60
2019-01-11T01:27:12.027Z,2.66
2019-01-11T01:28:12.048Z,2.62
2019-01-11T01:29:12.068Z,2.58
2019-01-11T01:30:12.093Z,2.66
2019-01-11T01:31:12.111Z,2.67
2019-01-11T01:32:12.133Z,2.65
2019-01-11T01:33:12.154Z,2.60
2019-01-11T01:34:12.175Z,2.63
2019-01-11T01:35:12.198Z,2.62
2019-01-11T01:36:12.220Z,2.66
2019-01-11T01:37:12.239Z,2.58
2019-01-11T01:38:12.260Z,2.60
2019-01-11T01:39:12.281Z,2.66
2019-01-11T01:40:12.299Z,2.72
2019-01-11T01:41:12.324Z,2.63
2019-01-11T01:42:12.351Z,2.62
2019-01-11T01:43:12.365Z,2.73
2019-01-11T01:44:12.392Z,2.63
2019-01-11T01:45:12.406Z,2.63
2019-01-11T01:46:12.432Z,2.67
2019-01-11T01:47:12.451Z,2.77
2019-01-11T01:48:12.471Z,2.65
2019-01-11T01:49:12.497Z,2.70
2019-01-11T01:50:12.514Z,2.63
2019-01-11T01:51:12.533Z,2.65
2019-01-11T01:52:12.553Z,2.69
2019-01-11T01:53:12.578Z,2.77
2019-01-11T01:54:12.595Z,2.73
2019-01-11T01:55:12.625Z,2.67
2019-01-11T01:56:12.639Z,2.66
2019-01-11T01:57:12.660Z,2.70
2019-01-11T01:58:12.678Z,2.66
2019-01-11T01:59:12.703Z,2.69
2019-01-11T02:00:12.723Z,2.78
2019-01-11T02:01:12.741Z,2.67
2019-01-11T02:02:12.766Z,2.76
2019-01-11T02:03:12.792Z,2.72
2019-01-11T02:04:12.804Z,2.77
2019-01-11T02:05:12.828Z,2.67
2019-01-11T02:06:12.852Z,2.72
2019-01-11T02:07:12.870Z,2.69
2019-01-11T02:08:12.892Z,2.83
2019-01-11T02:09:12.919Z,2.84
2019-01-11T02:10:12.932Z,2.80
2019-01-11T02:11:12.956Z,2.72
2019-01-11T02:12:12.976Z,2.84
2019-01-11T02:13:12.997Z,2.87
2019-01-11T02:14:13.019Z,2.80
2019-01-11T02:15:13.039Z,2.84
2019-01-11T02:16:13.058Z,2.84
2019-01-11T02:17:13.081Z,2.91
2019-01-11T02:18:13.103Z,2.84
2019-01-11T02:19:13.124Z,2.80
2019-01-11T02:20:13.145Z,2.83
2019-01-11T02:21:13.166Z,2.83
2019-01-11T02:22:13.187Z,2.88
2019-01-11T02:23:13.207Z,2.81
2019-01-11T02:24:13.227Z,2.83
2019-01-11T02:25:13.252Z,2.78
2019-01-11T02:26:13.268Z,2.90
2019-01-11T02:27:13.292Z,2.90
2019-01-11T02:28:13.311Z,2.84
2019-01-11T02:29:13.332Z,2.84
2019-01-11T02:30:13.359Z,2.80
2019-01-11T02:31:13.377Z,2.78
2019-01-11T02:32:13.396Z,2.84
2019-01-11T02:33:13.417Z,2.80
2019-01-11T02:34:13.442Z,2.83
2019-01-11T02:35:13.462Z,2.88
2019-01-11T02:36:13.482Z,2.83
2019-01-11T02:37:13.611Z,2.83
2019-01-11T02:38:13.525Z,2.83
2019-01-11T02:39:13.546Z,2.87
2019-01-11T02:40:13.565Z,2.84
2019-01-11T02:41:13.585Z,2.93
2019-01-11T02:42:13.608Z,2.88
2019-01-11T02:43:13.681Z,2.84
2019-01-11T02:44:13.653Z,2.83
2019-01-11T02:45:13.672Z,2.83
2019-01-11T02:46:13.700Z,2.83
2019-01-11T02:47:13.712Z,2.88
2019-01-11T02:48:13.736Z,2.88
2019-01-11T02:49:13.758Z,2.78
2019-01-11T02:50:13.777Z,2.78
2019-01-11T02:51:13.799Z,2.90
2019-01-11T02:52:13.827Z,2.87
2019-01-11T02:53:13.853Z,2.84
2019-01-11T02:54:13.867Z,2.81
2019-01-11T02:55:13.883Z,2.90
2019-01-11T02:56:13.902Z,2.87
2019-01-11T02:57:13.926Z,2.83
2019-01-11T02:58:13.946Z,2.91
2019-01-11T02:59:13.966Z,2.85
2019-01-11T03:00:13.990Z,2.85
2019-01-11T03:01:14.013Z,2.88
2019-01-11T03:02:14.034Z,2.83
2019-01-11T03:03:14.059Z,2.85
2019-01-11T03:04:14.074Z,2.87
2019-01-11T03:05:14.096Z,2.85
2019-01-11T03:06:14.118Z,2.84
2019-01-11T03:07:14.138Z,2.85
2019-01-11T03:08:14.158Z,2.83
2019-01-11T03:09:14.178Z,2.87
2019-01-11T03:10:14.203Z,2.85
2019-01-11T03:11:14.221Z,2.81
2019-01-11T03:12:14.242Z,2.80
2019-01-11T03:13:14.265Z,2.90
2019-01-11T03:14:14.283Z,2.87
2019-01-11T03:15:14.305Z,2.87
2019-01-11T03:16:14.328Z,2.88
2019-01-11T03:17:14.349Z,2.88
2019-01-11T03:18:14.373Z,2.83
2019-01-11T03:19:14.396Z,2.85
2019-01-11T03:20:14.413Z,2.87
2019-01-11T03:21:14.432Z,2.88
2019-01-11T03:22:14.457Z,2.91
2019-01-11T03:23:14.473Z,2.96
2019-01-11T03:24:14.495Z,2.93
2019-01-11T03:25:14.518Z,3.02
2019-01-11T03:26:14.538Z,3.05
2019-01-11T03:27:14.561Z,3.06
2019-01-11T03:28:14.583Z,2.96
2019-01-11T03:29:14.604Z,3.03
2019-01-11T03:30:14.626Z,3.05
2019-01-11T03:31:14.658Z,3.03
2019-01-11T03:32:14.667Z,2.98
2019-01-11T03:33:14.690Z,2.95
2019-01-11T03:34:14.716Z,2.88
2019-01-11T03:35:14.733Z,2.96
2019-01-11T03:36:14.754Z,2.91
2019-01-11T03:37:14.771Z,3.02
2019-01-11T03:38:14.792Z,3.03
2019-01-11T03:39:14.813Z,2.96
2019-01-11T03:40:14.836Z,2.93
2019-01-11T03:41:14.856Z,2.96
2019-01-11T03:42:14.880Z,3.11
2019-01-11T03:43:14.901Z,2.99
2019-01-11T03:44:14.920Z,2.99
2019-01-11T03:45:14.941Z,3.05
2019-01-11T03:46:14.966Z,3.03
2019-01-11T03:47:14.984Z,3.02
2019-01-11T03:48:15.007Z,2.98
2019-01-11T03:49:15.027Z,3.06
2019-01-11T03:50:15.058Z,3.06
2019-01-11T03:51:15.071Z,3.03
2019-01-11T03:52:15.089Z,3.03
2019-01-11T03:53:15.111Z,3.03
2019-01-11T03:54:15.131Z,3.03
2019-01-11T03:55:15.158Z,3.01
2019-01-11T03:56:15.182Z,3.03
2019-01-11T03:57:15.195Z,3.09
2019-01-11T03:58:15.217Z,3.08
2019-01-11T03:59:15.236Z,2.99
2019-01-11T04:00:15.257Z,3.08
2019-01-11T04:01:15.284Z,3.08
2019-01-11T04:02:15.303Z,3.09
2019-01-11T04:03:15.323Z,3.02
2019-01-11T04:04:15.362Z,3.13
2019-01-11T04:05:15.369Z,3.11
2019-01-11T04:06:15.387Z,3.13
2019-01-11T04:07:15.406Z,3.09
2019-01-11T04:08:15.427Z,3.09
2019-01-11T04:09:15.451Z,3.11
2019-01-11T04:10:15.470Z,3.14
2019-01-11T04:11:15.492Z,3.17
2019-01-11T04:12:15.515Z,3.19
2019-01-11T04:13:15.533Z,3.11
2019-01-11T04:14:15.557Z,3.08
2019-01-11T04:15:15.575Z,3.11
2019-01-11T04:16:15.598Z,3.17
2019-01-11T04:17:15.621Z,3.14
2019-01-11T04:18:15.643Z,3.21
2019-01-11T04:19:15.660Z,3.14
2019-01-11T04:20:15.689Z,3.14
2019-01-11T04:21:15.706Z,3.20
2019-01-11T04:22:15.725Z,3.21
2019-01-11T04:23:15.747Z,3.21
2019-01-11T04:24:15.771Z,3.23
2019-01-11T04:25:15.791Z,3.20
2019-01-11T04:26:15.814Z,3.21
2019-01-11T04:27:15.833Z,3.19
2019-01-11T04:28:15.854Z,3.24
2019-01-11T04:29:15.876Z,3.24
2019-01-11T04:30:15.900Z,3.23
2019-01-11T04:31:15.915Z,3.29
2019-01-11T04:32:15.949Z,3.16
2019-01-11T04:33:15.958Z,3.23
2019-01-11T04:34:15.985Z,3.23
2019-01-11T04:35:16.004Z,3.21
2019-01-11T04:36:16.025Z,3.20
2019-01-11T04:37:16.052Z,3.29
2019-01-11T04:38:16.068Z,3.32
2019-01-11T04:39:16.088Z,3.27
2019-01-11T04:40:16.116Z,3.29
2019-01-11T04:41:16.132Z,3.29
2019-01-11T04:42:16.151Z,3.23
2019-01-11T04:43:16.173Z,3.27
2019-01-11T04:44:16.196Z,3.34
2019-01-11T04:45:16.223Z,3.27
2019-01-11T04:46:16.239Z,3.24
2019-01-11T04:47:16.259Z,3.32
2019-01-11T04:48:16.280Z,3.37
2019-01-11T04:49:16.302Z,3.30
2019-01-11T04:50:16.338Z,3.30
2019-01-11T04:51:16.342Z,3.40
2019-01-11T04:52:16.367Z,3.30
2019-01-11T04:53:16.384Z,3.43
2019-01-11T04:54:16.410Z,3.40
2019-01-11T04:55:16.435Z,3.39
2019-01-11T04:56:16.451Z,3.34
2019-01-11T04:57:16.473Z,3.40
2019-01-11T04:58:16.494Z,3.39
2019-01-11T04:59:16.514Z,3.39
2019-01-11T05:00:16.537Z,3.40
2019-01-11T05:01:16.558Z,3.43
2019-01-11T05:02:16.580Z,3.42
2019-01-11T05:03:16.600Z,3.37
2019-01-11T05:04:16.620Z,3.46
2019-01-11T05:05:16.645Z,3.29
2019-01-11T05:06:16.670Z,3.35
2019-01-11T05:07:16.683Z,3.29
2019-01-11T05:08:16.708Z,3.42
2019-01-11T05:09:16.729Z,3.43
2019-01-11T05:10:16.751Z,3.37
2019-01-11T05:11:16.770Z,3.43
2019-01-11T05:12:16.794Z,3.51
2019-01-11T05:13:16.815Z,3.56
2019-01-11T05:14:16.836Z,3.43
2019-01-11T05:15:16.860Z,3.43
2019-01-11T05:16:16.877Z,3.53
2019-01-11T05:17:16.899Z,3.53
2019-01-11T05:18:16.920Z,3.48
2019-01-11T05:19:16.943Z,3.48
2019-01-11T05:20:17.356Z,3.51
2019-01-11T05:21:16.984Z,3.54
2019-01-11T05:22:17.009Z,3.56
2019-01-11T05:23:17.026Z,3.57
2019-01-11T05:24:17.047Z,3.49
2019-01-11T05:25:17.070Z,3.51
2019-01-11T05:26:17.094Z,3.48
2019-01-11T05:27:17.114Z,3.53
2019-01-11T05:28:17.137Z,3.48
2019-01-11T05:29:17.155Z,3.56
2019-01-11T05:30:17.180Z,3.57
2019-01-11T05:31:17.201Z,3.42
2019-01-11T05:32:17.223Z,3.54
2019-01-11T05:33:17.241Z,3.53
2019-01-11T05:34:17.263Z,3.49
2019-01-11T05:35:17.292Z,3.49
2019-01-11T05:36:17.306Z,3.56
2019-01-11T05:37:17.328Z,3.51
2019-01-11T05:38:17.351Z,3.58
2019-01-11T05:39:17.370Z,3.53
2019-01-11T05:40:17.392Z,3.53
2019-01-11T05:41:17.415Z,3.51
2019-01-11T05:42:17.435Z,3.54
2019-01-11T05:43:17.460Z,3.56
2019-01-11T05:44:17.479Z,3.58
2019-01-11T05:45:17.502Z,3.56
2019-01-11T05:46:17.524Z,3.61
2019-01-11T05:47:17.543Z,3.60
2019-01-11T05:48:17.572Z,3.48
2019-01-11T05:49:17.591Z,3.63
2019-01-11T05:50:23.884Z,3.54
2019-01-11T05:51:17.632Z,3.67
2019-01-11T05:52:17.653Z,3.64
2019-01-11T05:53:17.679Z,3.72
2019-01-11T05:54:17.698Z,3.69
2019-01-11T05:55:17.771Z,3.71
2019-01-11T05:56:17.736Z,3.67
2019-01-11T05:57:17.766Z,3.71
2019-01-11T05:58:17.789Z,3.69
2019-01-11T05:59:17.800Z,3.63
2019-01-11T06:00:17.824Z,3.75
2019-01-11T06:01:17.847Z,3.71
2019-01-11T06:02:17.867Z,3.74
2019-01-11T06:03:17.890Z,3.66
2019-01-11T06:04:17.912Z,3.64
2019-01-11T06:05:17.929Z,3.66
2019-01-11T06:06:17.956Z,3.66
2019-01-11T06:07:17.974Z,3.75
2019-01-11T06:08:17.995Z,3.67
2019-01-11T06:09:18.017Z,3.72
2019-01-11T06:10:18.039Z,3.71
2019-01-11T06:11:18.059Z,3.75
2019-01-11T06:12:18.083Z,3.72
2019-01-11T06:13:18.105Z,3.79
2019-01-11T06:14:18.127Z,3.76
2019-01-11T06:15:18.147Z,3.76
2019-01-11T06:16:18.167Z,3.76
2019-01-11T06:17:18.189Z,3.82
2019-01-11T06:18:18.211Z,3.81
2019-01-11T06:19:18.234Z,3.82
2019-01-11T06:20:18.265Z,3.81
2019-01-11T06:21:18.276Z,3.85
2019-01-11T06:22:18.297Z,3.81
2019-01-11T06:23:18.321Z,3.86
2019-01-11T06:24:18.342Z,3.81
2019-01-11T06:25:18.365Z,3.82
2019-01-11T06:26:18.387Z,3.89
2019-01-11T06:27:18.407Z,3.89
2019-01-11T06:28:18.427Z,3.82
2019-01-11T06:29:18.450Z,3.93
2019-01-11T06:30:18.477Z,3.79
2019-01-11T06:31:18.496Z,3.84
2019-01-11T06:32:18.515Z,3.79
2019-01-11T06:33:18.543Z,3.90
2019-01-11T06:34:18.571Z,3.92
2019-01-11T06:35:18.585Z,3.93
2019-01-11T06:36:18.601Z,3.86
2019-01-11T06:37:18.625Z,3.92
2019-01-11T06:38:18.646Z,3.84
2019-01-11T06:39:18.665Z,3.92
2019-01-11T06:40:18.689Z,3.89
2019-01-11T06:41:18.711Z,3.85
2019-01-11T06:42:18.733Z,3.92
2019-01-11T06:43:18.754Z,3.86
2019-01-11T06:44:18.774Z,3.94
2019-01-11T06:45:18.796Z,3.90
2019-01-11T06:46:18.827Z,3.90
2019-01-11T06:47:18.838Z,3.85
2019-01-11T06:48:18.877Z,3.97
2019-01-11T06:49:18.923Z,3.97
2019-01-11T06:50:18.955Z,3.94
2019-01-11T06:51:18.925Z,3.97
2019-01-11T06:52:18.949Z,4.07
2019-01-11T06:53:18.970Z,4.02
2019-01-11T06:54:18.994Z,4.03
2019-01-11T06:55:19.016Z,4.02
2019-01-11T06:56:19.034Z,4.04
2019-01-11T06:57:19.055Z,4.02
2019-01-11T06:58:19.079Z,4.07
2019-01-11T06:59:19.101Z,4.12
2019-01-11T07:00:19.122Z,4.11
2019-01-11T07:01:19.144Z,4.02
2019-01-11T07:02:19.204Z,3.99
2019-01-11T07:03:19.187Z,4.00
2019-01-11T07:04:19.210Z,4.04
2019-01-11T07:05:19.228Z,4.15
2019-01-11T07:06:19.251Z,4.10
2019-01-11T07:07:19.274Z,4.08
2019-01-11T07:08:19.296Z,4.04
2019-01-11T07:09:19.318Z,4.07
2019-01-11T07:10:19.338Z,4.11
2019-01-11T07:11:19.360Z,4.12
2019-01-11T07:12:19.384Z,4.11
2019-01-11T07:13:19.404Z,4.11
2019-01-11T07:14:19.423Z,4.03
2019-01-11T07:15:19.448Z,4.11
2019-01-11T07:16:19.469Z,4.11
2019-01-11T07:17:19.492Z,4.14
2019-01-11T07:18:19.511Z,4.18
2019-01-11T07:19:19.535Z,4.17
2019-01-11T07:20:19.556Z,4.15
2019-01-11T07:21:19.576Z,4.17
2019-01-11T07:22:19.602Z,4.29
2019-01-11T07:23:19.620Z,4.35
2019-01-11T07:24:19.645Z,4.29
2019-01-11T07:25:19.664Z,4.21
2019-01-11T07:26:19.688Z,4.26
2019-01-11T07:27:19.708Z,4.29
2019-01-11T07:28:19.731Z,4.22
2019-01-11T07:29:19.751Z,4.17
2019-01-11T07:30:19.774Z,4.21
2019-01-11T07:31:19.802Z,4.20
2019-01-11T07:32:19.817Z,4.24
2019-01-11T07:33:19.843Z,4.17
2019-01-11T07:34:19.861Z,4.22
2019-01-11T07:35:19.882Z,4.20
2019-01-11T07:36:19.905Z,4.18
2019-01-11T07:37:19.927Z,4.20
2019-01-11T07:38:19.948Z,4.17
2019-01-11T07:39:19.972Z,4.21
2019-01-11T07:40:19.992Z,4.21
2019-01-11T07:41:20.014Z,4.24
2019-01-11T07:42:20.041Z,4.18
2019-01-11T07:43:20.059Z,4.17
2019-01-11T07:44:20.080Z,4.18
2019-01-11T07:45:20.104Z,4.22
2019-01-11T07:46:20.126Z,4.26
2019-01-11T07:47:20.146Z,4.21
2019-01-11T07:48:20.169Z,4.24
2019-01-11T07:49:23.193Z,4.30
2019-01-11T07:50:20.214Z,4.29
2019-01-11T07:51:20.239Z,4.29
2019-01-11T07:52:20.254Z,4.29
2019-01-11T07:53:20.276Z,4.28
2019-01-11T07:54:20.305Z,4.36
2019-01-11T07:55:20.320Z,4.26
2019-01-11T07:56:20.344Z,4.30
2019-01-11T07:57:20.365Z,4.32
2019-01-11T07:58:20.387Z,4.35
2019-01-11T07:59:20.407Z,4.28
2019-01-11T08:00:20.432Z,4.36
2019-01-11T08:01:20.454Z,4.39
2019-01-11T08:02:20.474Z,4.42
2019-01-11T08:03:20.497Z,4.53
2019-01-11T08:04:20.517Z,4.58
2019-01-11T08:05:20.538Z,4.53
2019-01-11T08:06:20.563Z,4.51
2019-01-11T08:07:20.586Z,4.54
2019-01-11T08:08:20.605Z,4.50
2019-01-11T08:09:20.629Z,4.46
2019-01-11T08:10:20.650Z,4.53
2019-01-11T08:11:20.672Z,4.56
2019-01-11T08:12:20.700Z,4.54
2019-01-11T08:13:20.715Z,4.57
2019-01-11T08:14:20.791Z,4.58
2019-01-11T08:15:20.759Z,4.66
2019-01-11T08:16:20.781Z,4.56
2019-01-11T08:17:20.805Z,4.57
2019-01-11T08:18:20.826Z,4.47
2019-01-11T08:19:20.847Z,4.53
2019-01-11T08:20:20.870Z,4.44
2019-01-11T08:21:20.896Z,4.51
2019-01-11T08:22:20.915Z,4.54
2019-01-11T08:23:20.936Z,4.54
2019-01-11T08:24:20.964Z,4.53
2019-01-11T08:25:20.983Z,4.53
2019-01-11T08:26:21.006Z,4.50
2019-01-11T08:27:21.026Z,4.48
2019-01-11T08:28:21.047Z,4.46
2019-01-11T08:29:21.071Z,4.47
2019-01-11T08:30:21.095Z,4.51
2019-01-11T08:31:21.116Z,4.51
2019-01-11T08:32:21.137Z,4.44
2019-01-11T08:33:21.165Z,4.54
2019-01-11T08:34:21.181Z,4.56
2019-01-11T08:35:21.205Z,4.58
2019-01-11T08:36:21.226Z,4.61
2019-01-11T08:37:21.248Z,4.57
2019-01-11T08:38:21.269Z,4.60
2019-01-11T08:39:21.293Z,4.60
2019-01-11T08:40:21.313Z,4.56
2019-01-11T08:41:21.335Z,4.57
2019-01-11T08:42:21.360Z,4.56
2019-01-11T08:43:21.383Z,4.66
2019-01-11T08:44:21.403Z,4.68
2019-01-11T08:45:21.426Z,4.68
2019-01-11T08:46:21.449Z,4.69
2019-01-11T08:47:21.475Z,4.71
2019-01-11T08:48:21.495Z,4.74
2019-01-11T08:49:21.513Z,4.75
2019-01-11T08:50:21.539Z,4.69
2019-01-11T08:51:21.559Z,4.68
2019-01-11T08:52:21.582Z,4.69
2019-01-11T08:53:21.602Z,4.65
2019-01-11T08:54:21.624Z,4.69
2019-01-11T08:55:21.646Z,4.68
2019-01-11T08:56:21.670Z,4.74
2019-01-11T08:57:21.693Z,4.75
2019-01-11T08:58:21.712Z,4.72
2019-01-11T08:59:21.735Z,4.76
2019-01-11T09:00:21.758Z,4.72
2019-01-11T09:01:21.782Z,4.79
2019-01-11T09:02:21.805Z,4.85
2019-01-11T09:03:21.825Z,4.91
2019-01-11T09:04:21.848Z,4.87
2019-01-11T09:05:21.869Z,4.88
2019-01-11T09:06:21.893Z,4.85
2019-01-11T09:07:21.913Z,4.88
2019-01-11T09:08:21.938Z,4.83
2019-01-11T09:09:21.957Z,4.85
2019-01-11T09:10:22.958Z,4.90
2019-01-11T09:11:22.003Z,4.95
2019-01-11T09:12:22.027Z,5.00
2019-01-11T09:13:22.048Z,4.97
2019-01-11T09:14:22.069Z,4.97
2019-01-11T09:15:22.095Z,4.92
2019-01-11T09:16:22.116Z,5.00
2019-01-11T09:17:22.138Z,5.02
2019-01-11T09:18:22.159Z,5.02
2019-01-11T09:19:22.181Z,5.00
2019-01-11T09:20:22.203Z,5.00
2019-01-11T09:21:22.226Z,5.05
2019-01-11T09:22:22.247Z,5.09
2019-01-11T09:23:22.268Z,5.12
2019-01-11T09:24:22.290Z,5.10
2019-01-11T09:25:22.313Z,5.08
2019-01-11T09:26:22.338Z,5.16
2019-01-11T09:27:22.357Z,5.13
2019-01-11T09:28:22.379Z,5.16
2019-01-11T09:29:22.404Z,5.09
2019-01-11T09:30:22.424Z,5.16
2019-01-11T09:31:22.446Z,5.21
2019-01-11T09:32:22.468Z,5.12
2019-01-11T09:33:22.493Z,5.20
2019-01-11T09:34:22.516Z,5.15
2019-01-11T09:35:22.535Z,5.21
2019-01-11T09:36:22.560Z,5.20
2019-01-11T09:37:22.580Z,5.26
2019-01-11T09:38:22.604Z,5.16
2019-01-11T09:39:22.625Z,5.26
2019-01-11T09:40:22.649Z,5.24
2019-01-11T09:41:22.671Z,5.24
2019-01-11T09:42:22.694Z,5.33
2019-01-11T09:43:22.714Z,5.34
2019-01-11T09:44:22.743Z,5.33
2019-01-11T09:45:22.760Z,5.31
2019-01-11T09:46:22.784Z,5.37
2019-01-11T09:47:22.806Z,5.34
2019-01-11T09:48:22.826Z,5.39
2019-01-11T09:49:22.849Z,5.39
2019-01-11T09:50:22.871Z,5.31
2019-01-11T09:51:22.893Z,5.30
2019-01-11T09:52:22.918Z,5.36
2019-01-11T09:53:22.939Z,5.45
2019-01-11T09:54:22.961Z,5.48
2019-01-11T09:55:22.985Z,5.49
2019-01-11T09:56:23.006Z,5.49
2019-01-11T09:57:23.041Z,5.52
2019-01-11T09:58:23.051Z,5.45
2019-01-11T09:59:23.074Z,5.51
2019-01-11T10:00:23.101Z,5.45
2019-01-11T10:01:23.125Z,5.52
2019-01-11T10:02:23.141Z,5.55
2019-01-11T10:03:23.165Z,5.55
2019-01-11T10:04:23.188Z,5.57
2019-01-11T10:05:23.209Z,5.59
2019-01-11T10:06:23.233Z,5.62
2019-01-11T10:07:23.253Z,5.64
2019-01-11T10:08:23.276Z,5.66
2019-01-11T10:09:23.301Z,5.70
2019-01-11T10:10:23.324Z,5.73
2019-01-11T10:11:23.344Z,5.84
2019-01-11T10:12:23.368Z,5.85
2019-01-11T10:13:23.389Z,5.81
2019-01-11T10:14:23.414Z,5.89
2019-01-11T10:15:23.436Z,5.88
2019-01-11T10:16:23.774Z,5.96
2019-01-11T10:17:23.479Z,5.85
2019-01-11T10:18:23.505Z,5.92
2019-01-11T10:19:23.528Z,6.02
2019-01-11T10:20:23.552Z,6.00
2019-01-11T10:21:24.093Z,6.13
2019-01-11T10:22:23.594Z,6.03
2019-01-11T10:23:23.617Z,6.20
2019-01-11T10:24:23.639Z,6.21
2019-01-11T10:25:23.666Z,6.13
2019-01-11T10:26:23.686Z,6.17
2019-01-11T10:27:23.707Z,6.39
2019-01-11T10:28:23.734Z,6.55
2019-01-11T10:29:23.753Z,6.55
2019-01-11T10:30:23.790Z,6.65
2019-01-11T10:31:23.871Z,6.62
2019-01-11T10:32:23.822Z,6.70
2019-01-11T10:33:23.882Z,6.72
2019-01-11T10:34:23.868Z,6.65
2019-01-11T10:35:23.892Z,6.76
2019-01-11T10:36:23.917Z,6.79
2019-01-11T10:37:23.936Z,6.86
2019-01-11T10:38:23.961Z,6.90
2019-01-11T10:39:23.980Z,6.73
2019-01-11T10:40:24.006Z,6.76
2019-01-11T10:41:24.030Z,6.62
2019-01-11T10:42:24.053Z,6.65
2019-01-11T10:43:24.073Z,6.61
2019-01-11T10:44:24.097Z,6.51
2019-01-11T10:45:24.120Z,6.51
2019-01-11T10:46:24.151Z,6.47
2019-01-11T10:47:24.169Z,6.49
2019-01-11T10:48:24.191Z,6.55
2019-01-11T10:49:24.215Z,6.58
2019-01-11T10:50:24.236Z,6.49
2019-01-11T10:51:28.135Z,6.54
2019-01-11T10:52:24.283Z,6.61
2019-01-11T10:53:24.307Z,6.58
2019-01-11T10:54:24.333Z,6.62
2019-01-11T10:55:24.353Z,6.55
2019-01-11T10:56:24.375Z,6.73
2019-01-11T10:57:24.402Z,6.73
2019-01-11T10:58:24.423Z,6.64
2019-01-11T10:59:24.445Z,6.76
2019-01-11T11:00:24.469Z,6.75
2019-01-11T11:01:24.493Z,6.80
2019-01-11T11:02:24.516Z,6.85
2019-01-11T11:03:24.538Z,6.85
2019-01-11T11:04:24.562Z,6.83
2019-01-11T11:05:24.583Z,6.86
2019-01-11T11:06:24.607Z,6.86
2019-01-11T11:07:24.631Z,6.91
2019-01-11T11:08:24.655Z,6.85
2019-01-11T11:09:24.680Z,6.88
2019-01-11T11:10:24.702Z,7.03
2019-01-11T11:11:24.724Z,6.90
2019-01-11T11:12:24.749Z,6.91
2019-01-11T11:13:24.772Z,6.98
2019-01-11T11:14:24.795Z,7.00
2019-01-11T11:15:24.817Z,7.03
2019-01-11T11:16:24.841Z,6.93
2019-01-11T11:17:24.866Z,6.97
2019-01-11T11:18:24.891Z,7.05
2019-01-11T11:19:24.909Z,7.00
2019-01-11T11:20:24.936Z,6.95
2019-01-11T11:21:24.958Z,7.11
2019-01-11T11:22:24.982Z,7.04
2019-01-11T11:23:25.004Z,7.01
2019-01-11T11:24:25.037Z,7.11
2019-01-11T11:25:25.052Z,7.11
2019-01-11T11:26:25.075Z,7.12
2019-01-11T11:27:25.096Z,7.12
2019-01-11T11:28:25.120Z,7.12
2019-01-11T11:29:25.146Z,7.08
2019-01-11T11:30:25.169Z,7.08
2019-01-11T11:31:25.190Z,7.18
2019-01-11T11:32:25.213Z,7.15
2019-01-11T11:33:25.237Z,7.16
2019-01-11T11:34:25.263Z,7.23
2019-01-11T11:35:25.284Z,7.19
2019-01-11T11:36:25.312Z,7.19
2019-01-11T11:37:25.331Z,7.27
2019-01-11T11:38:25.357Z,7.31
2019-01-11T11:39:25.379Z,7.29
2019-01-11T11:40:25.403Z,7.27
2019-01-11T11:41:25.428Z,7.34
2019-01-11T11:42:25.451Z,7.30
2019-01-11T11:43:25.474Z,7.30
2019-01-11T11:44:25.504Z,7.41
2019-01-11T11:45:25.521Z,7.47
2019-01-11T11:46:25.545Z,7.47
2019-01-11T11:47:25.568Z,7.45
2019-01-11T11:48:25.590Z,7.48
2019-01-11T11:49:25.617Z,7.37
2019-01-11T11:50:25.641Z,7.55
2019-01-11T11:51:25.662Z,7.48
2019-01-11T11:52:25.694Z,7.48
2019-01-11T11:53:25.711Z,7.47
2019-01-11T11:54:25.733Z,7.40
2019-01-11T11:55:25.754Z,7.30
2019-01-11T11:56:25.780Z,7.41
2019-01-11T11:57:25.804Z,7.41
2019-01-11T11:58:25.828Z,7.49
2019-01-11T11:59:25.852Z,7.45
2019-01-11T12:00:25.873Z,7.49
2019-01-11T12:01:25.898Z,7.44
2019-01-11T12:02:25.921Z,7.30
2019-01-11T12:03:25.944Z,7.44
2019-01-11T12:04:25.970Z,7.48
2019-01-11T12:05:25.991Z,7.44
2019-01-11T12:06:26.018Z,7.39
2019-01-11T12:07:26.039Z,7.48
2019-01-11T12:08:26.062Z,7.36
2019-01-11T12:09:26.089Z,7.39
2019-01-11T12:10:26.112Z,7.51
2019-01-11T12:11:26.136Z,7.49
2019-01-11T12:12:26.157Z,7.48
2019-01-11T12:13:26.181Z,7.48
2019-01-11T12:14:26.207Z,7.49
2019-01-11T12:15:26.227Z,7.51
2019-01-11T12:16:26.254Z,7.49
2019-01-11T12:17:26.277Z,7.47
2019-01-11T12:18:26.298Z,7.48
2019-01-11T12:19:26.326Z,7.48
2019-01-11T12:20:26.347Z,7.47
2019-01-11T12:21:26.371Z,7.47
2019-01-11T12:22:26.393Z,7.52
2019-01-11T12:23:26.419Z,7.48
2019-01-11T12:24:26.445Z,7.47
2019-01-11T12:25:26.484Z,7.45
2019-01-11T12:26:26.488Z,7.56
2019-01-11T12:27:26.510Z,7.55
2019-01-11T12:28:26.538Z,7.51
2019-01-11T12:29:26.559Z,7.58
2019-01-11T12:30:26.585Z,7.63
2019-01-11T12:31:26.608Z,7.55
2019-01-11T12:32:26.629Z,7.54
2019-01-11T12:33:26.655Z,7.67
2019-01-11T12:34:26.677Z,7.55
2019-01-11T12:35:26.705Z,7.52
2019-01-11T12:36:26.724Z,7.63
2019-01-11T12:37:26.748Z,7.59
2019-01-11T12:38:26.774Z,7.68
2019-01-11T12:39:26.797Z,7.67
2019-01-11T12:40:26.821Z,7.64
2019-01-11T12:41:26.843Z,7.63
2019-01-11T12:42:26.869Z,7.74
2019-01-11T12:43:26.889Z,7.70
2019-01-11T12:44:26.916Z,7.73
2019-01-11T12:45:26.938Z,7.71
2019-01-11T12:46:26.964Z,7.67
2019-01-11T12:47:26.987Z,7.77
2019-01-11T12:48:27.009Z,7.74
2019-01-11T12:49:27.035Z,7.83
2019-01-11T12:50:27.059Z,7.89
2019-01-11T12:51:27.082Z,7.92
2019-01-11T12:52:27.106Z,7.86
2019-01-11T12:53:27.130Z,7.98
2019-01-11T12:54:27.155Z,7.96
2019-01-11T12:55:27.177Z,8.01
2019-01-11T12:56:27.202Z,8.04
2019-01-11T12:57:27.370Z,8.01
2019-01-11T12:58:27.251Z,7.99
2019-01-11T12:59:27.273Z,8.06
2019-01-11T13:00:27.298Z,8.11
2019-01-11T13:01:27.319Z,7.98
2019-01-11T13:02:27.345Z,8.14
2019-01-11T13:03:27.368Z,8.21
2019-01-11T13:04:27.391Z,8.09
2019-01-11T13:05:27.458Z,8.13
2019-01-11T13:06:27.440Z,8.26
2019-01-11T13:07:27.463Z,8.22
2019-01-11T13:08:27.492Z,8.28
2019-01-11T13:09:27.514Z,8.24
2019-01-11T13:10:27.536Z,8.34
2019-01-11T13:11:27.560Z,8.39
2019-01-11T13:12:27.585Z,8.49
2019-01-11T13:13:27.608Z,8.47
2019-01-11T13:14:27.633Z,8.46
2019-01-11T13:15:27.656Z,8.49
2019-01-11T13:16:27.681Z,8.53
2019-01-11T13:17:27.712Z,8.50
2019-01-11T13:18:27.729Z,8.53